Time;durP1;ratioP1;P1;durP2;ratioP2;P2;SDS_P1;SDS_P2;PMS_P1;PMS_P2;Temp;Humidity;BMP_temperature;BMP_pressure;BME280_temperature;BME280_humidity;BME280_pressure;Samples;Min_cycle;Max_cycle;Signal;HPM_P1;HPM_P2
2024/01/02 00:00:33;;;;;;;3.57;1.40;;;23.90;45.70;;;;;;4954968;28;94149;-64
2024/01/02 00:03:01;;;;;;;1.13;0.97;;;23.80;45.70;;;;;;4957436;28;95939;-63
2024/01/02 00:05:29;;;;;;;2.97;1.90;;;23.80;45.80;;;;;;4957397;28;92049;-64
2024/01/02 00:07:57;;;;;;;2.87;1.20;;;23.80;45.80;;;;;;4957269;28;91949;-63
2024/01/02 00:10:26;;;;;;;6.87;1.93;;;23.80;45.80;;;;;;4957911;28;95076;-63
2024/01/02 00:12:58;;;;;;;2.80;1.90;;;23.70;45.70;;;;;;4960180;28;93619;-63
2024/01/02 00:15:26;;;;;;;4.17;2.10;;;23.70;45.70;;;;;;4956890;28;92224;-64
2024/01/02 00:17:54;;;;;;;2.67;1.60;;;23.70;45.90;;;;;;4954319;28;92169;-64
2024/01/02 00:20:22;;;;;;;4.73;2.43;;;23.70;45.80;;;;;;4956543;28;94128;-64
2024/01/02 00:22:50;;;;;;;4.70;1.80;;;23.60;46.40;;;;;;4956413;28;93857;-64
2024/01/02 00:25:18;;;;;;;4.33;1.83;;;23.60;45.80;;;;;;4957061;28;93157;-64
2024/01/02 00:27:47;;;;;;;4.83;2.03;;;23.60;45.80;;;;;;4956899;28;91354;-64
2024/01/02 00:30:17;;;;;;;2.60;1.87;;;23.60;45.80;;;;;;4957759;28;94174;-64
2024/01/02 00:32:45;;;;;;;3.10;2.03;;;23.60;45.80;;;;;;4959672;28;93902;-64
2024/01/02 00:35:14;;;;;;;3.33;1.83;;;23.50;45.70;;;;;;4953838;28;93041;-64
2024/01/02 00:37:42;;;;;;;2.67;1.73;;;23.50;45.80;;;;;;4957301;28;92079;-64
2024/01/02 00:40:11;;;;;;;2.40;2.13;;;23.50;45.80;;;;;;4957163;28;94258;-64
2024/01/02 00:42:39;;;;;;;3.13;2.30;;;23.50;45.80;;;;;;4959615;28;92723;-64
2024/01/02 00:45:08;;;;;;;3.83;1.93;;;23.40;45.80;;;;;;4957314;28;92042;-64
2024/01/02 00:47:37;;;;;;;2.17;1.80;;;23.40;45.80;;;;;;4954640;28;92061;-64
2024/01/02 00:50:06;;;;;;;3.03;1.50;;;23.40;45.80;;;;;;4957060;28;94515;-64
2024/01/02 00:52:34;;;;;;;3.43;1.67;;;23.40;45.80;;;;;;4958867;28;93791;-64
2024/01/02 00:55:02;;;;;;;8.50;2.73;;;23.40;45.80;;;;;;4958435;28;92287;-63
2024/01/02 00:57:31;;;;;;;5.03;2.23;;;23.40;45.80;;;;;;4956496;28;92105;-64
2024/01/02 00:59:59;;;;;;;4.27;1.93;;;23.40;45.80;;;;;;4958182;28;95367;-64
2024/01/02 01:02:27;;;;;;;4.07;1.93;;;23.40;45.80;;;;;;4958994;28;94837;-64
2024/01/02 01:04:57;;;;;;;2.00;1.80;;;23.40;45.80;;;;;;4960175;28;91954;-63
2024/01/02 01:07:25;;;;;;;3.27;1.97;;;23.30;45.70;;;;;;4959801;28;92033;-63
2024/01/02 01:09:53;;;;;;;2.87;1.77;;;23.30;46.40;;;;;;4960207;28;94282;-64
2024/01/02 01:12:21;;;;;;;3.60;1.53;;;23.30;45.70;;;;;;4959828;28;93859;-64
2024/01/02 01:14:49;;;;;;;3.63;1.97;;;23.30;45.70;;;;;;4960755;28;92260;-64
2024/01/02 01:17:17;;;;;;;4.57;1.57;;;23.20;45.70;;;;;;4959561;28;91315;-64
2024/01/02 01:19:45;;;;;;;2.30;1.73;;;23.20;45.70;;;;;;4959830;28;94232;-64
2024/01/02 01:22:15;;;;;;;2.87;1.80;;;23.20;45.70;;;;;;4958973;28;93879;-64
2024/01/02 01:24:44;;;;;;;2.57;1.77;;;23.20;45.80;;;;;;4960278;28;92985;-64
2024/01/02 01:27:12;;;;;;;2.30;1.60;;;23.20;45.80;;;;;;4959186;28;92211;-64
2024/01/02 01:29:40;;;;;;;1.97;1.50;;;23.20;45.80;;;;;;4960063;28;94383;-64
2024/01/02 01:32:09;;;;;;;2.27;1.67;;;23.10;45.70;;;;;;4960229;28;93939;-64
2024/01/02 01:34:37;;;;;;;2.80;1.43;;;23.10;45.70;;;;;;4957496;28;92056;-64
2024/01/02 01:37:05;;;;;;;2.87;2.03;;;23.10;45.80;;;;;;4959149;28;92093;-63
2024/01/02 01:39:35;;;;;;;2.03;1.73;;;23.10;45.80;;;;;;4959363;28;93045;-63
2024/01/02 01:42:03;;;;;;;1.60;1.33;;;23.10;45.80;;;;;;4960088;28;93783;-64
2024/01/02 01:44:31;;;;;;;2.10;1.57;;;23.00;45.70;;;;;;4956418;28;92466;-64
2024/01/02 01:46:59;;;;;;;1.77;1.67;;;23.00;45.70;;;;;;4959115;28;92265;-63
2024/01/02 01:49:27;;;;;;;2.80;1.93;;;23.00;45.80;;;;;;4957858;28;94972;-63
2024/01/02 01:51:55;;;;;;;2.97;1.53;;;23.00;45.80;;;;;;4958766;28;94729;-63
2024/01/02 01:54:23;;;;;;;1.57;1.47;;;23.00;45.80;;;;;;4959095;28;92076;-64
2024/01/02 01:56:52;;;;;;;4.10;1.47;;;23.00;45.80;;;;;;4958963;28;92147;-64
2024/01/02 01:59:20;;;;;;;1.60;1.50;;;22.90;45.70;;;;;;4960794;28;94262;-63
2024/01/02 02:01:49;;;;;;;1.20;0.80;;;22.90;45.70;;;;;;4959961;28;93962;-63
2024/01/02 02:04:17;;;;;;;2.30;1.40;;;22.90;45.70;;;;;;4958616;28;92090;-63
2024/01/02 02:06:45;;;;;;;1.53;1.20;;;23.00;45.90;;;;;;4959850;28;91369;-64
2024/01/02 02:09:13;;;;;;;3.23;1.67;;;22.90;45.70;;;;;;4959167;28;94449;-63
2024/01/02 02:11:41;;;;;;;1.60;1.10;;;22.90;45.80;;;;;;4958072;28;93820;-63
2024/01/02 02:14:10;;;;;;;1.47;0.93;;;22.90;45.80;;;;;;4958188;28;92803;-63
2024/01/02 02:16:42;;;;;;;0.80;0.80;;;22.90;45.80;;;;;;4958416;28;92082;-64
2024/01/02 02:19:10;;;;;;;1.33;1.23;;;22.90;45.80;;;;;;4958414;28;94082;-63
2024/01/02 02:21:38;;;;;;;1.77;1.10;;;22.80;46.50;;;;;;4961924;28;93767;-64
2024/01/02 02:24:07;;;;;;;1.43;0.97;;;22.80;45.70;;;;;;4959336;28;92267;-64
2024/01/02 02:26:36;;;;;;;1.50;0.90;;;22.80;45.80;;;;;;4956296;28;92161;-63
2024/01/02 02:29:04;;;;;;;1.10;0.83;;;22.80;45.80;;;;;;4959892;28;94258;-64
2024/01/02 02:31:32;;;;;;;3.40;1.07;;;22.80;45.80;;;;;;4958830;28;92857;-63
2024/01/02 02:34:00;;;;;;;2.27;1.00;;;22.80;45.80;;;;;;4959131;28;92051;-64
2024/01/02 02:36:28;;;;;;;1.30;0.90;;;22.80;45.90;;;;;;4954275;28;92581;-64
2024/01/02 02:38:56;;;;;;;1.10;1.00;;;22.80;45.90;;;;;;4952399;28;95039;-64
2024/01/02 02:41:25;;;;;;;1.17;1.00;;;22.70;46.40;;;;;;4955164;28;97218;-63
2024/01/02 02:43:54;;;;;;;0.80;0.80;;;22.70;45.80;;;;;;4958620;28;92390;-63
2024/01/02 02:46:22;;;;;;;1.37;0.70;;;22.70;45.80;;;;;;4955921;28;92675;-64
2024/01/02 02:48:50;;;;;;;1.33;1.00;;;22.70;45.80;;;;;;4954863;28;94162;-63
2024/01/02 02:51:18;;;;;;;2.17;1.43;;;22.90;46.00;;;;;;4955176;28;93799;-64
2024/01/02 02:53:46;;;;;;;2.67;1.47;;;22.70;45.90;;;;;;4955592;28;92179;-64
2024/01/02 02:56:15;;;;;;;1.20;1.10;;;22.70;45.90;;;;;;4958706;28;91399;-64
2024/01/02 02:58:45;;;;;;;1.83;0.90;;;22.60;45.80;;;;;;4956027;28;94266;-64
2024/01/02 03:01:22;;;;;;;0.57;0.50;;;22.70;45.90;;;;;;4955601;28;93994;-64
2024/01/02 03:03:49;;;;;;;0.93;0.80;;;22.60;45.90;;;;;;4952482;28;93492;-64
2024/01/02 03:06:17;;;;;;;2.37;1.33;;;22.60;45.90;;;;;;4955653;28;92380;-64
2024/01/02 03:08:46;;;;;;;0.90;0.77;;;22.60;45.90;;;;;;4954962;28;94447;-64
2024/01/02 03:11:14;;;;;;;0.50;0.50;;;22.60;45.90;;;;;;4955020;28;94056;-64
2024/01/02 03:13:42;;;;;;;0.60;0.37;;;22.60;45.90;;;;;;4956317;28;91992;-64
2024/01/02 03:16:12;;;;;;;1.73;1.33;;;22.50;45.30;;;;;;4956538;28;92167;-64
2024/01/02 03:18:40;;;;;;;1.20;0.80;;;22.50;45.90;;;;;;4955297;28;94165;-63
2024/01/02 03:21:10;;;;;;;0.93;0.73;;;22.50;46.00;;;;;;4955510;28;93815;-63
2024/01/02 03:23:38;;;;;;;1.20;1.10;;;22.50;46.00;;;;;;4952274;28;92513;-63
2024/01/02 03:26:06;;;;;;;1.20;0.80;;;22.50;45.90;;;;;;4954547;28;92758;-63
2024/01/02 03:28:34;;;;;;;0.80;0.80;;;22.50;46.00;;;;;;4956439;28;95193;-64
2024/01/02 03:31:03;;;;;;;1.57;0.70;;;22.50;46.00;;;;;;4954754;28;94816;-63
2024/01/02 03:33:33;;;;;;;1.43;1.00;;;22.50;46.00;;;;;;4957405;28;92286;-64
2024/01/02 03:36:01;;;;;;;0.30;0.30;;;22.50;46.00;;;;;;4954015;28;92186;-64
2024/01/02 03:38:29;;;;;;;0.67;0.67;;;22.50;46.00;;;;;;4955473;28;94259;-64
2024/01/02 03:40:57;;;;;;;0.63;0.43;;;22.50;46.00;;;;;;4954871;28;93903;-64
2024/01/02 03:43:25;;;;;;;0.60;0.60;;;22.50;46.70;;;;;;4955901;28;92210;-63
2024/01/02 03:45:53;;;;;;;0.93;0.57;;;22.40;46.00;;;;;;4955169;28;91441;-63
2024/01/02 03:48:23;;;;;;;1.50;0.70;;;22.40;46.00;;;;;;4954127;28;94145;-64
2024/01/02 03:50:53;;;;;;;0.97;0.57;;;22.40;46.00;;;;;;4954180;28;94081;-64
2024/01/02 03:53:21;;;;;;;0.90;0.77;;;22.40;46.00;;;;;;4954637;28;93587;-63
2024/01/02 03:55:49;;;;;;;0.50;0.50;;;22.40;46.00;;;;;;4953789;28;92140;-63
2024/01/02 03:58:17;;;;;;;0.60;0.60;;;22.40;46.10;;;;;;4953468;28;94190;-64
2024/01/02 04:00:45;;;;;;;2.30;0.50;;;22.40;46.10;;;;;;4953726;28;93984;-63
2024/01/02 04:03:13;;;;;;;0.40;0.40;;;22.40;46.10;;;;;;4953450;28;92147;-64
2024/01/02 04:05:41;;;;;;;0.93;0.63;;;22.40;46.10;;;;;;4952454;28;92678;-64
2024/01/02 04:08:11;;;;;;;1.30;1.20;;;22.30;46.10;;;;;;4958953;28;94334;-64
2024/01/02 04:10:39;;;;;;;0.60;0.60;;;22.30;46.10;;;;;;4954979;28;93901;-64
2024/01/02 04:13:09;;;;;;;1.40;0.60;;;22.30;46.10;;;;;;4956908;28;92138;-64
2024/01/02 04:15:37;;;;;;;0.63;0.63;;;22.30;46.10;;;;;;4957043;28;92112;-64
2024/01/02 04:18:05;;;;;;;0.60;0.60;;;22.30;46.20;;;;;;4960751;28;96539;-64
2024/01/02 04:20:34;;;;;;;0.77;0.70;;;22.30;46.20;;;;;;4956887;28;94872;-63
2024/01/02 04:23:03;;;;;;;1.13;0.83;;;22.30;46.20;;;;;;4956974;28;91962;-64
2024/01/02 04:25:32;;;;;;;0.83;0.83;;;22.30;46.20;;;;;;4955849;28;92023;-64
2024/01/02 04:28:00;;;;;;;0.60;0.60;;;22.30;46.20;;;;;;4957855;28;94149;-64
2024/01/02 04:30:28;;;;;;;0.60;0.60;;;22.30;46.30;;;;;;4956825;28;93804;-64
2024/01/02 04:32:56;;;;;;;0.87;0.60;;;22.30;46.30;;;;;;4958070;28;92041;-64
2024/01/02 04:35:24;;;;;;;1.03;0.80;;;22.30;46.30;;;;;;4959914;28;91580;-64
2024/01/02 04:37:53;;;;;;;0.43;0.43;;;22.30;46.30;;;;;;4960180;28;94448;-64
2024/01/02 04:40:21;;;;;;;0.90;0.90;;;22.30;46.30;;;;;;4959373;28;94079;-63
2024/01/02 04:42:50;;;;;;;0.43;0.43;;;22.30;46.30;;;;;;4959991;28;93001;-64
2024/01/02 04:45:18;;;;;;;0.80;0.80;;;22.30;46.30;;;;;;4959528;28;91920;-64
2024/01/02 04:47:46;;;;;;;0.50;0.50;;;22.20;46.30;;;;;;4957882;28;94241;-64
2024/01/02 04:50:15;;;;;;;0.67;0.67;;;22.20;46.90;;;;;;4960675;28;93994;-64
2024/01/02 04:52:43;;;;;;;0.33;0.33;;;22.20;46.30;;;;;;4959750;28;92425;-64
2024/01/02 04:55:11;;;;;;;0.43;0.40;;;22.20;46.30;;;;;;4960064;28;92128;-64
2024/01/02 04:57:39;;;;;;;0.50;0.50;;;22.20;46.40;;;;;;4959648;28;93020;-64
2024/01/02 05:00:10;;;;;;;0.60;0.60;;;22.20;46.40;;;;;;4957506;28;94400;-64
2024/01/02 05:02:37;;;;;;;0.87;0.77;;;22.20;46.40;;;;;;4960331;28;92075;-64
2024/01/02 05:05:06;;;;;;;0.60;0.60;;;22.20;46.40;;;;;;4958842;28;92159;-64
2024/01/02 05:07:34;;;;;;;1.10;1.00;;;22.20;46.40;;;;;;4959034;28;95388;-64
2024/01/02 05:10:03;;;;;;;0.80;0.80;;;22.10;46.40;;;;;;4959283;28;94863;-65
2024/01/02 05:12:31;;;;;;;2.20;0.90;;;22.10;46.40;;;;;;4962276;28;92215;-64
2024/01/02 05:14:59;;;;;;;1.93;0.80;;;22.10;46.40;;;;;;4961711;28;92190;-64
2024/01/02 05:17:29;;;;;;;0.73;0.73;;;22.10;46.40;;;;;;4960142;28;94506;-64
2024/01/02 05:19:57;;;;;;;1.23;1.13;;;22.10;46.40;;;;;;4960600;28;94027;-64
2024/01/02 05:22:25;;;;;;;1.17;0.80;;;22.10;46.50;;;;;;4960522;28;92077;-64
2024/01/02 05:24:53;;;;;;;1.33;1.00;;;22.10;46.60;;;;;;4958510;28;91382;-63
2024/01/02 05:27:22;;;;;;;1.77;1.07;;;22.10;46.70;;;;;;4959244;28;94145;-63
2024/01/02 05:29:50;;;;;;;1.03;1.00;;;22.10;46.90;;;;;;4960095;28;93886;-64
2024/01/02 05:32:18;;;;;;;1.77;1.03;;;22.10;46.90;;;;;;4962503;28;93073;-64
2024/01/02 05:34:47;;;;;;;1.00;1.00;;;22.30;47.10;;;;;;4958620;28;92203;-64
2024/01/02 05:37:16;;;;;;;1.90;0.80;;;22.20;47.00;;;;;;4958786;28;94052;-64
2024/01/02 05:39:44;;;;;;;4.30;1.20;;;22.30;47.10;;;;;;4961306;28;96561;-64
2024/01/02 05:42:12;;;;;;;1.47;1.10;;;22.70;47.30;;;;;;4957838;28;92026;-64
2024/01/02 05:44:40;;;;;;;1.50;0.90;;;22.50;47.00;;;;;;4959014;28;93430;-64
2024/01/02 05:47:08;;;;;;;1.10;1.10;;;22.70;47.00;;;;;;4955616;28;94274;-65
2024/01/02 05:49:36;;;;;;;2.80;1.20;;;22.90;47.00;;;;;;4959798;28;93770;-64
2024/01/02 05:52:06;;;;;;;2.30;1.57;;;23.20;47.00;;;;;;4959134;28;92414;-64
2024/01/02 05:54:34;;;;;;;1.77;1.20;;;23.40;46.90;;;;;;4959500;28;92678;-64
2024/01/02 05:57:03;;;;;;;3.13;1.47;;;23.60;46.70;;;;;;4960485;28;94249;-64
2024/01/02 05:59:30;;;;;;;4.13;0.97;;;23.80;46.60;;;;;;4958538;28;95004;-64
2024/01/02 06:01:59;;;;;;;1.57;1.40;;;24.00;46.60;;;;;;4959164;28;92032;-64
2024/01/02 06:04:27;;;;;;;1.20;1.00;;;24.20;46.50;;;;;;4959488;28;92043;-64
2024/01/02 06:06:55;;;;;;;1.40;1.30;;;24.40;46.50;;;;;;4958119;28;94187;-64
2024/01/02 06:09:24;;;;;;;2.97;1.93;;;24.60;46.40;;;;;;4958845;28;93836;-64
2024/01/02 06:11:52;;;;;;;2.10;1.30;;;24.60;46.20;;;;;;4959295;28;91999;-64
2024/01/02 06:14:20;;;;;;;4.70;1.23;;;24.70;46.20;;;;;;4959550;28;91195;-64
2024/01/02 06:16:48;;;;;;;1.67;1.53;;;24.70;46.20;;;;;;4956469;28;94156;-64
2024/01/02 06:19:18;;;;;;;2.37;1.60;;;24.80;46.90;;;;;;4959165;28;92499;-65
2024/01/02 06:21:47;;;;;;;1.87;1.20;;;24.60;46.10;;;;;;4956145;28;93003;-64
2024/01/02 06:24:15;;;;;;;2.30;1.07;;;24.70;46.30;;;;;;4960856;28;92169;-64
2024/01/02 06:26:44;;;;;;;1.80;1.03;;;24.70;46.30;;;;;;4964764;28;93034;-64
2024/01/02 06:29:13;;;;;;;1.77;1.40;;;24.60;46.40;;;;;;4961754;28;93951;-63
2024/01/02 06:31:41;;;;;;;2.90;1.20;;;24.50;46.50;;;;;;4959451;28;92284;-63
2024/01/02 06:34:09;;;;;;;1.73;1.20;;;24.50;46.60;;;;;;4956181;28;92406;-62
2024/01/02 06:36:38;;;;;;;1.30;1.20;;;24.50;46.70;;;;;;4957512;28;94308;-62
2024/01/02 06:39:06;;;;;;;1.47;1.37;;;24.40;46.80;;;;;;4958543;28;93760;-62
2024/01/02 06:41:34;;;;;;;1.37;1.27;;;24.40;46.90;;;;;;4958906;28;92247;-62
2024/01/02 06:44:04;;;;;;;3.93;1.60;;;24.30;47.00;;;;;;4959322;28;92414;-63
2024/01/02 06:46:32;;;;;;;1.83;1.20;;;24.30;47.20;;;;;;4957942;28;95155;-63
2024/01/02 06:49:00;;;;;;;2.50;1.50;;;24.30;47.40;;;;;;4958047;28;95124;-63
2024/01/02 06:51:29;;;;;;;2.07;1.60;;;24.20;47.30;;;;;;4955511;28;92479;-63
2024/01/02 06:53:57;;;;;;;2.70;1.87;;;24.10;47.30;;;;;;4958453;28;92026;-62
2024/01/02 06:56:25;;;;;;;5.20;1.70;;;24.10;47.40;;;;;;4959012;28;94154;-63
2024/01/02 06:58:53;;;;;;;2.60;1.77;;;24.10;47.60;;;;;;4960779;28;92707;-62
2024/01/02 07:01:25;;;;;;;2.33;1.27;;;24.00;47.60;;;;;;4958278;28;92020;-63
2024/01/02 07:03:53;;;;;;;1.83;1.30;;;24.00;47.70;;;;;;4958486;28;91361;-62
2024/01/02 07:06:22;;;;;;;1.83;1.30;;;24.00;47.80;;;;;;4959228;28;94274;-63
2024/01/02 07:08:50;;;;;;;1.47;1.33;;;24.00;47.90;;;;;;4956026;28;93844;-63
2024/01/02 07:11:18;;;;;;;1.47;1.23;;;24.00;48.00;;;;;;4958808;28;93064;-63
2024/01/02 07:13:46;;;;;;;1.17;1.17;;;23.90;48.10;;;;;;4956086;28;92524;-63
2024/01/02 07:16:15;;;;;;;1.53;1.43;;;23.90;48.10;;;;;;4958593;28;94212;-63
2024/01/02 07:18:44;;;;;;;4.13;1.57;;;23.90;48.20;;;;;;4958788;28;95001;-62
2024/01/02 07:21:12;;;;;;;4.03;1.33;;;23.90;48.40;;;;;;4958147;28;91764;-63
2024/01/02 07:23:40;;;;;;;2.63;1.57;;;23.80;48.40;;;;;;4958020;28;92272;-63
2024/01/02 07:26:08;;;;;;;1.43;1.33;;;23.80;48.40;;;;;;4958202;28;94664;-62
2024/01/02 07:28:37;;;;;;;1.37;1.23;;;23.80;48.50;;;;;;4958093;28;96637;-62
2024/01/02 07:31:05;;;;;;;2.60;1.20;;;23.80;49.20;;;;;;4957799;28;92067;-62
2024/01/02 07:33:33;;;;;;;1.00;0.80;;;23.80;48.60;;;;;;4957811;28;92058;-63
2024/01/02 07:36:02;;;;;;;1.60;1.33;;;23.80;48.70;;;;;;4956902;28;93915;-63
2024/01/02 07:38:30;;;;;;;3.27;1.20;;;23.70;48.70;;;;;;4959057;28;94976;-63
2024/01/02 07:40:58;;;;;;;0.80;0.80;;;23.70;48.80;;;;;;4957955;28;92340;-63
2024/01/02 07:43:28;;;;;;;1.70;1.13;;;23.70;48.80;;;;;;4957586;28;92222;-63
2024/01/02 07:45:56;;;;;;;0.90;0.90;;;23.70;48.90;;;;;;4955962;28;94349;-63
2024/01/02 07:48:24;;;;;;;1.43;1.10;;;23.70;49.00;;;;;;4958725;28;93831;-64
2024/01/02 07:50:52;;;;;;;5.87;1.00;;;23.70;49.00;;;;;;4958260;28;92214;-63
2024/01/02 07:53:22;;;;;;;1.00;1.00;;;23.60;48.90;;;;;;4957815;28;93145;-64
2024/01/02 07:55:50;;;;;;;2.07;1.50;;;23.60;49.10;;;;;;4955176;28;94567;-63
2024/01/02 07:58:18;;;;;;;1.30;1.20;;;23.60;49.20;;;;;;4956999;28;93751;-63
2024/01/02 08:00:46;;;;;;;1.50;1.13;;;23.60;49.20;;;;;;4959909;28;92933;-62
2024/01/02 08:03:15;;;;;;;1.07;0.97;;;23.60;49.30;;;;;;4957644;28;93146;-63
2024/01/02 08:05:43;;;;;;;3.13;1.57;;;23.60;49.30;;;;;;4956860;28;94177;-62
2024/01/02 08:08:11;;;;;;;1.10;1.00;;;23.90;49.40;;;;;;4956572;28;92766;-63
2024/01/02 08:10:41;;;;;;;1.47;1.23;;;23.90;49.40;;;;;;4957106;28;92360;-63
2024/01/02 08:13:09;;;;;;;1.30;0.90;;;24.00;49.30;;;;;;4956910;28;92176;-63
2024/01/02 08:15:37;;;;;;;1.73;1.47;;;24.20;49.20;;;;;;4957071;28;94061;-63
2024/01/02 08:18:09;;;;;;;1.10;1.00;;;24.40;49.70;;;;;;4954952;28;94369;-63
2024/01/02 08:20:38;;;;;;;1.87;1.13;;;24.60;49.00;;;;;;4957680;28;92182;-63
2024/01/02 08:23:07;;;;;;;2.57;1.00;;;24.80;48.90;;;;;;4956743;28;92166;-63
2024/01/02 08:25:35;;;;;;;1.73;1.20;;;25.00;48.80;;;;;;4956283;28;93897;-63
2024/01/02 08:28:06;;;;;;;2.13;1.10;;;25.10;48.80;;;;;;4958155;28;97267;-63
2024/01/02 08:30:34;;;;;;;1.30;1.20;;;25.10;48.70;;;;;;4958671;28;92187;-63
2024/01/02 08:33:03;;;;;;;1.33;1.00;;;25.20;48.80;;;;;;4957417;28;92298;-63
2024/01/02 08:35:33;;;;;;;2.00;1.33;;;25.20;48.80;;;;;;4956536;28;94228;-63
2024/01/02 08:38:01;;;;;;;7.27;1.60;;;25.20;48.80;;;;;;4956681;28;93889;-63
2024/01/02 08:40:30;;;;;;;2.40;0.90;;;25.10;48.90;;;;;;4954948;28;91964;-63
2024/01/02 08:42:58;;;;;;;0.80;0.77;;;25.10;48.90;;;;;;4957613;28;91216;-63
2024/01/02 08:45:27;;;;;;;0.73;0.73;;;25.10;49.10;;;;;;4956369;28;94421;-63
2024/01/02 08:47:55;;;;;;;1.87;1.13;;;25.00;49.10;;;;;;4956343;28;93989;-63
2024/01/02 08:50:25;;;;;;;2.87;1.10;;;24.90;49.10;;;;;;4957114;28;93003;-63
2024/01/02 08:52:53;;;;;;;2.87;1.10;;;24.90;49.10;;;;;;4956700;28;92170;-63
2024/01/02 08:55:21;;;;;;;4.17;0.93;;;24.90;49.90;;;;;;4956734;28;94137;-63
2024/01/02 08:57:49;;;;;;;1.80;1.37;;;24.80;49.30;;;;;;4956640;28;94007;-63
2024/01/02 09:00:18;;;;;;;1.60;1.23;;;24.70;49.20;;;;;;4958151;28;92151;-63
2024/01/02 09:02:47;;;;;;;2.77;1.00;;;24.70;49.30;;;;;;4957618;28;92126;-63
2024/01/02 09:05:15;;;;;;;1.47;1.37;;;24.70;49.60;;;;;;4956720;28;92863;-63
2024/01/02 09:07:44;;;;;;;1.20;1.10;;;24.60;49.40;;;;;;4955347;28;93900;-63
2024/01/02 09:10:13;;;;;;;0.80;0.80;;;23.60;48.70;;;;;;4956963;28;91794;-62
2024/01/02 09:12:41;;;;;;;1.13;0.77;;;24.60;49.60;;;;;;4956371;28;92093;-63
2024/01/02 09:15:10;;;;;;;1.50;0.97;;;24.50;49.60;;;;;;4952540;28;95066;-64
2024/01/02 09:17:38;;;;;;;1.03;0.70;;;24.60;49.70;;;;;;4956479;28;93823;-64
2024/01/02 09:20:11;;;;;;;3.87;1.53;;;24.40;49.60;;;;;;4957293;28;92071;-63
2024/01/02 09:22:39;;;;;;;1.20;0.80;;;24.40;49.70;;;;;;4959694;28;92034;-64
2024/01/02 09:25:08;;;;;;;1.50;1.00;;;24.40;49.80;;;;;;4959764;28;94065;-63
2024/01/02 09:27:36;;;;;;;0.70;0.70;;;24.40;49.80;;;;;;4959630;28;93833;-63
2024/01/02 09:30:05;;;;;;;0.60;0.60;;;24.30;49.80;;;;;;4959591;28;91933;-64
2024/01/02 09:32:33;;;;;;;3.50;0.97;;;24.30;49.70;;;;;;4959917;28;91383;-64
2024/01/02 09:35:01;;;;;;;1.53;0.70;;;24.30;49.80;;;;;;4959656;28;94159;-64
2024/01/02 09:37:31;;;;;;;2.83;1.10;;;24.30;49.80;;;;;;4956870;28;93823;-64
2024/01/02 09:39:59;;;;;;;2.03;1.10;;;24.30;49.80;;;;;;4959245;28;93131;-63
2024/01/02 09:42:41;;;;;;;0.77;0.77;;;24.20;49.80;;;;;;4959431;28;92373;-64
2024/01/02 09:45:15;;;;;;;1.63;0.70;;;24.20;49.80;;;;;;4957114;28;93973;-63
2024/01/02 09:48:05;;;;;;;0.93;0.73;;;24.20;49.80;;;;;;4959431;28;93938;-64
2024/01/02 09:50:34;;;;;;;3.83;0.83;;;24.10;49.80;;;;;;4957160;28;92056;-64
2024/01/02 09:53:18;;;;;;;1.00;0.70;;;24.10;49.80;;;;;;4961163;28;93348;-64
2024/01/02 09:55:49;;;;;;;2.87;1.20;;;24.10;49.80;;;;;;4957901;28;94193;-63
2024/01/02 09:58:26;;;;;;;0.83;0.57;;;24.00;49.80;;;;;;4957640;28;94139;-64
2024/01/02 10:00:58;;;;;;;4.37;1.37;;;24.00;49.90;;;;;;4957238;28;92025;-65
2024/01/02 10:03:43;;;;;;;2.40;1.27;;;24.00;50.00;;;;;;4958526;28;92143;-63
2024/01/02 10:06:24;;;;;;;0.70;0.70;;;23.90;49.90;;;;;;4957284;28;95054;-65
2024/01/02 10:09:03;;;;;;;2.53;0.63;;;23.90;49.90;;;;;;4956921;28;94694;-64
2024/01/02 10:11:36;;;;;;;2.50;1.43;;;24.00;50.00;;;;;;4956405;28;92131;-64
2024/01/02 10:14:08;;;;;;;4.03;1.70;;;24.00;50.00;;;;;;4959745;28;92121;-63
2024/01/02 10:16:38;;;;;;;6.33;5.20;;;24.10;49.90;;;;;;4958710;28;94339;-64
2024/01/02 10:19:11;;;;;;;10.33;6.73;;;24.20;50.60;;;;;;4959183;28;93917;-66
2024/01/02 10:21:43;;;;;;;14.73;7.83;;;24.20;49.90;;;;;;4960367;28;92154;-64
2024/01/02 10:24:24;;;;;;;7.17;3.80;;;24.10;50.50;;;;;;4959146;28;91526;-64
2024/01/02 10:27:03;;;;;;;8.77;4.63;;;24.20;50.00;;;;;;4955740;28;94170;-64
2024/01/02 10:29:37;;;;;;;26.13;6.47;;;24.30;50.20;;;;;;4955879;28;93891;-64
2024/01/02 10:32:08;;;;;;;12.67;5.23;;;24.30;50.20;;;;;;4956757;28;92992;-65
2024/01/02 10:34:37;;;;;;;13.63;5.50;;;24.30;50.30;;;;;;4957930;28;92905;-64
2024/01/02 10:37:07;;;;;;;10.30;4.57;;;24.30;50.30;;;;;;4958214;28;95717;-65
2024/01/02 10:39:39;;;;;;;9.07;4.93;;;24.30;50.50;;;;;;4958395;28;93960;-64
2024/01/02 10:42:31;;;;;;;7.20;3.43;;;24.30;50.60;;;;;;4960782;28;92010;-64
2024/01/02 10:45:07;;;;;;;8.17;3.83;;;24.30;50.60;;;;;;4958829;28;92053;-64
2024/01/02 10:47:41;;;;;;;6.40;2.90;;;24.30;50.70;;;;;;4956473;28;94416;-64
2024/01/02 10:50:12;;;;;;;6.37;3.30;;;24.30;50.80;;;;;;4956592;28;95381;-64
2024/01/02 10:52:43;;;;;;;6.40;2.73;;;24.20;50.70;;;;;;4959156;28;92567;-65
2024/01/02 10:55:19;;;;;;;4.77;2.73;;;24.20;50.70;;;;;;4955937;28;92047;-64
2024/01/02 10:57:53;;;;;;;4.87;2.37;;;24.20;50.90;;;;;;4957116;28;95270;-64
2024/01/02 11:00:22;;;;;;;3.27;2.20;;;24.10;50.80;;;;;;4958332;28;94293;-65
2024/01/02 11:02:56;;;;;;;4.57;2.57;;;24.10;50.70;;;;;;4961342;28;92096;-64
2024/01/02 11:05:38;;;;;;;5.73;2.10;;;24.00;50.70;;;;;;4978619;28;92651;-64
2024/01/02 11:08:08;;;;;;;5.27;2.47;;;24.00;50.70;;;;;;4968118;28;94382;-64
2024/01/02 11:10:39;;;;;;;5.23;2.40;;;24.00;50.70;;;;;;4969879;28;94065;-64
2024/01/02 11:13:08;;;;;;;6.83;2.27;;;24.00;50.70;;;;;;4959153;28;93650;-63
2024/01/02 11:15:43;;;;;;;6.97;2.00;;;23.90;50.70;;;;;;4959074;28;91440;-64
2024/01/02 11:18:12;;;;;;;5.33;2.37;;;23.90;50.70;;;;;;4958181;28;94146;-64
2024/01/02 11:20:45;;;;;;;4.23;2.30;;;23.80;50.60;;;;;;4957786;28;93713;-64
2024/01/02 11:23:15;;;;;;;3.20;1.70;;;23.80;50.60;;;;;;4958462;28;92872;-64
2024/01/02 11:25:48;;;;;;;11.13;2.57;;;23.80;50.50;;;;;;4957658;28;92247;-63
2024/01/02 11:28:30;;;;;;;5.20;2.30;;;23.80;50.50;;;;;;4954938;28;94488;-64
2024/01/02 11:30:58;;;;;;;3.13;2.10;;;23.80;50.50;;;;;;4957346;28;94201;-63
2024/01/02 11:33:31;;;;;;;4.00;2.40;;;23.70;50.60;;;;;;4956015;28;91999;-64
2024/01/02 11:36:07;;;;;;;5.70;3.03;;;23.70;50.60;;;;;;4958267;28;92159;-64
2024/01/02 11:38:41;;;;;;;2.83;1.80;;;23.70;50.60;;;;;;4957467;28;94536;-64
2024/01/02 11:41:13;;;;;;;5.63;2.30;;;23.70;50.60;;;;;;4956075;28;93771;-64
2024/01/02 11:43:45;;;;;;;6.10;2.17;;;23.70;50.70;;;;;;4957175;28;91985;-64
2024/01/02 11:46:13;;;;;;;7.33;2.50;;;23.60;50.40;;;;;;4958174;28;91969;-64
2024/01/02 11:48:51;;;;;;;3.37;2.13;;;23.60;50.50;;;;;;4956690;28;95100;-64
2024/01/02 11:51:22;;;;;;;4.27;2.57;;;23.60;50.50;;;;;;4960509;28;94736;-64
2024/01/02 11:54:06;;;;;;;4.13;2.10;;;23.60;50.40;;;;;;4957455;28;91930;-64
2024/01/02 11:56:35;;;;;;;3.90;2.93;;;23.60;50.40;;;;;;4957710;28;92048;-64
2024/01/02 11:59:13;;;;;;;2.67;2.00;;;23.60;50.50;;;;;;4956827;28;94221;-64
2024/01/02 12:01:48;;;;;;;4.17;2.33;;;23.50;50.50;;;;;;4957377;28;93780;-64
2024/01/02 12:04:22;;;;;;;2.30;1.77;;;23.60;50.60;;;;;;4958121;28;92001;-64
2024/01/02 12:06:57;;;;;;;4.53;3.03;;;23.60;50.50;;;;;;4955876;28;91208;-64
2024/01/02 12:09:27;;;;;;;4.90;2.47;;;23.50;50.40;;;;;;4954065;28;94243;-64
2024/01/02 12:12:00;;;;;;;3.90;2.40;;;23.50;50.40;;;;;;4957318;28;94012;-64
2024/01/02 12:14:35;;;;;;;5.27;3.20;;;23.50;50.50;;;;;;4955085;28;93231;-64
2024/01/02 12:17:04;;;;;;;5.87;3.83;;;23.50;50.50;;;;;;4957375;28;92225;-63
2024/01/02 12:19:51;;;;;;;5.07;2.67;;;23.50;50.40;;;;;;4955325;28;94663;-63
2024/01/02 12:22:20;;;;;;;6.87;3.20;;;23.40;50.40;;;;;;4957776;28;96504;-63
2024/01/02 12:24:48;;;;;;;8.07;2.90;;;23.40;50.50;;;;;;4956613;28;92688;-62
2024/01/02 12:27:19;;;;;;;4.33;3.20;;;23.40;50.50;;;;;;4958691;28;92178;-62
2024/01/02 12:29:50;;;;;;;5.77;3.53;;;23.40;50.50;;;;;;4962830;28;94130;-62
2024/01/02 12:32:22;;;;;;;7.37;3.27;;;23.40;50.50;;;;;;4957680;28;93911;-62
2024/01/02 12:34:55;;;;;;;4.43;3.03;;;23.40;50.50;;;;;;4959240;28;92341;-62
2024/01/02 12:37:28;;;;;;;5.37;3.30;;;23.40;50.50;;;;;;4969477;28;92107;-62
2024/01/02 12:39:58;;;;;;;5.40;2.90;;;23.40;50.60;;;;;;4941390;28;95111;-62
2024/01/02 12:42:28;;;;;;;4.60;3.07;;;23.30;50.60;;;;;;4956477;28;94711;-62
2024/01/02 12:44:58;;;;;;;3.77;2.83;;;23.30;50.60;;;;;;4972126;28;91971;-63
2024/01/02 12:47:26;;;;;;;6.27;2.77;;;23.30;50.50;;;;;;4974833;28;92069;-63
2024/01/02 12:49:58;;;;;;;4.13;3.17;;;23.30;50.80;;;;;;4966537;28;94303;-63
2024/01/02 12:52:28;;;;;;;4.83;2.67;;;23.20;51.20;;;;;;4956233;28;93053;-63
2024/01/02 12:54:56;;;;;;;5.90;2.40;;;23.20;50.50;;;;;;4971328;28;92033;-63
2024/01/02 12:57:25;;;;;;;4.27;2.53;;;23.20;50.60;;;;;;4980262;28;91361;-63